Juneau, Alaska
Current Conditions -  °F | °C
As of 12:53 PM on Monday 20 Oct 2014 (Local Time) from PAJN Reporting Station
Light Rain Light Rain  
Wind Chill: 42°   Ceiling: 3400
Heat Index: 47°   Visibility: 7mi
Dew Point: 44°   Wind: 12mph
Humidity: 90%   Direction: 90°E
Pressure: 29.3"   Gusts: NA
Location:  58.37°N, 134.57°W
Report Text: PAJN 202053Z 09010KT 7SM -RA FEW013 BKN034 OVC046 08/07 A2930 RMK AO2 SLP921 P0006 60008 T00830067 51016
Loading
Personal Weather Stations






























Interactive Weather Map
Tropical Storm Tracking
New forecast layout! Learn more

10-Day Weather Forecast

Advertisements
Track Severe Weather on mobile